Time;durP1;ratioP1;P1;durP2;ratioP2;P2;SDS_P1;SDS_P2;PMS_P1;PMS_P2;Temp;Humidity;BMP_temperature;BMP_pressure;BME280_temperature;BME280_humidity;BME280_pressure;Samples;Min_cycle;Max_cycle;Signal;HPM_P1;HPM_P2
2021/11/05 00:01:17;;;;;;;1.60;0.70;;;;;;;7.72;62.06;96250.98;115887;1195;25188;-84
2021/11/05 00:03:46;;;;;;;;;;;;;;;7.71;62.36;96260.00;115905;1189;24042;-84
2021/11/05 00:06:16;;;;;;;0.40;0.40;;;;;;;7.71;62.31;96258.10;115690;1195;24322;-84
2021/11/05 00:08:47;;;;;;;1.60;0.70;;;;;;;7.71;62.71;96260.11;115730;1196;26301;-84
2021/11/05 00:11:16;;;;;;;;;;;;;;;7.71;62.43;96272.30;115842;1195;24966;-83
2021/11/05 00:13:47;;;;;;;1.20;0.80;;;;;;;7.66;62.36;96276.80;115789;1196;23452;-84
2021/11/05 00:16:18;;;;;;;1.30;0.70;;;;;;;7.59;62.47;96273.80;115760;1196;23409;-84
2021/11/05 00:18:48;;;;;;;0.80;0.60;;;;;;;7.51;62.43;96278.99;115815;1196;23163;-84
2021/11/05 00:21:17;;;;;;;;;;;;;;;7.50;62.53;96279.73;115876;1196;23485;-84
2021/11/05 00:23:48;;;;;;;0.60;0.50;;;;;;;7.54;62.53;96283.16;115899;1195;22575;-84
2021/11/05 00:26:17;;;;;;;;;;;;;;;7.50;62.11;96279.58;115825;1196;25237;-82
2021/11/05 00:28:48;;;;;;;0.50;0.50;;;;;;;7.44;61.92;96272.30;115830;1196;23936;-84
2021/11/05 00:31:19;;;;;;;0.50;0.50;;;;;;;7.41;61.82;96263.61;115871;1196;24145;-83
2021/11/05 00:33:48;;;;;;;;;;;;;;;7.39;61.34;96274.10;115775;1189;25157;-83
2021/11/05 00:36:18;;;;;;;0.20;0.20;;;;;;;7.42;61.05;96273.88;115752;1196;23724;-83
2021/11/05 00:38:49;;;;;;;1.40;0.30;;;;;;;7.40;61.14;96288.24;115764;1196;24745;-84
2021/11/05 00:41:18;;;;;;;;;;;;;;;7.32;60.86;96287.45;115766;1196;24552;-84
2021/11/05 00:43:50;;;;;;;0.30;0.30;;;;;;;7.30;60.90;96274.73;115855;1194;23181;-84
2021/11/05 00:46:20;;;;;;;0.40;0.40;;;;;;;7.27;60.49;96279.70;115756;1174;23217;-84
2021/11/05 00:48:49;;;;;;;;;;;;;;;7.27;60.53;96300.00;115790;1187;26499;-84
2021/11/05 00:51:20;;;;;;;0.20;0.20;;;;;;;7.19;60.44;96300.69;115770;1196;24310;-84
2021/11/05 00:53:50;;;;;;;;;;;;;;;7.14;60.61;96305.54;115796;1196;24852;-84
2021/11/05 00:56:20;;;;;;;0.40;0.30;;;;;;;7.18;60.43;96312.23;115815;1196;24982;-84
2021/11/05 00:58:49;;;;;;;;;;;;;;;7.19;59.92;96312.71;115806;1196;27774;-83
2021/11/05 01:01:20;;;;;;;0.30;0.20;;;;;;;7.22;59.85;96319.20;115791;1189;23948;-84
2021/11/05 01:03:51;;;;;;;;;;;;;;;7.16;60.19;96323.84;115751;1196;26158;-84
2021/11/05 01:06:23;;;;;;;0.70;0.20;;;;;;;7.04;60.34;96329.52;115813;1196;24881;-84
2021/11/05 01:08:52;;;;;;;;;;;;;;;7.00;60.49;96329.92;115866;1195;25328;-84
2021/11/05 01:11:23;;;;;;;0.20;0.20;;;;;;;7.05;60.22;96324.58;115889;1196;24404;-84
2021/11/05 01:13:54;;;;;;;0.50;0.30;;;;;;;7.07;60.31;96327.59;115849;1196;25373;-84
2021/11/05 01:16:25;;;;;;;0.10;0.10;;;;;;;7.02;60.32;96336.42;115878;1195;24424;-84
2021/11/05 01:18:56;;;;;;;1.40;0.30;;;;;;;6.98;60.59;96343.27;115910;1195;34072;-83
2021/11/05 01:21:26;;;;;;;0.20;0.20;;;;;;;6.93;60.77;96339.48;115838;1195;26119;-84
2021/11/05 01:23:55;;;;;;;;;;;;;;;6.91;60.82;96340.16;115908;1193;25253;-83
2021/11/05 01:26:26;;;;;;;0.30;0.30;;;;;;;6.90;60.97;96346.42;115875;1195;24516;-83
2021/11/05 01:28:55;;;;;;;;;;;;;;;6.91;61.06;96345.21;115899;1196;23506;-84
2021/11/05 01:31:26;;;;;;;0.30;0.20;;;;;;;6.90;61.15;96355.23;115929;1188;23294;-84
2021/11/05 01:33:58;;;;;;;0.90;0.30;;;;;;;6.80;61.41;96363.05;115892;1196;23249;-84
2021/11/05 01:36:29;;;;;;;0.20;0.20;;;;;;;6.75;61.68;96361.50;115867;1196;25167;-84
2021/11/05 01:39:00;;;;;;;0.20;0.20;;;;;;;6.71;61.60;96363.02;115950;1189;23373;-84
2021/11/05 01:41:31;;;;;;;0.50;0.30;;;;;;;6.61;61.88;96375.10;115848;1196;27517;-84
2021/11/05 01:44:00;;;;;;;;;;;;;;;6.54;61.80;96376.30;115902;1196;25177;-84
2021/11/05 01:46:31;;;;;;;0.10;0.10;;;;;;;6.48;62.21;96381.50;115930;1196;23407;-84
2021/11/05 01:49:00;;;;;;;;;;;;;;;6.48;62.38;96382.70;115965;1194;23927;-83
2021/11/05 01:51:30;;;;;;;0.60;0.40;;;;;;;6.45;62.33;96387.62;115896;1196;25624;-84
2021/11/05 01:54:01;;;;;;;0.50;0.40;;;;;;;6.38;62.18;96391.92;115907;1180;25080;-83
2021/11/05 01:56:33;;;;;;;0.30;0.30;;;;;;;6.32;62.37;96387.45;115925;1196;25007;-83
2021/11/05 01:59:04;;;;;;;0.80;0.60;;;;;;;6.26;62.51;96387.44;115971;1196;22807;-85
2021/11/05 02:01:35;;;;;;;0.50;0.40;;;;;;;6.20;62.64;96388.83;115994;1195;23655;-84
2021/11/05 02:04:06;;;;;;;0.40;0.40;;;;;;;6.15;62.68;96386.11;115866;1196;28543;-84
2021/11/05 02:06:37;;;;;;;0.40;0.40;;;;;;;6.08;62.78;96385.34;115810;1195;25937;-83
2021/11/05 02:09:06;;;;;;;;;;;;;;;6.03;62.77;96389.20;115961;1196;23769;-83
2021/11/05 02:11:38;;;;;;;1.00;0.40;;;;;;;5.99;63.04;96391.39;115889;1196;24208;-83
2021/11/05 02:14:14;;;;;;;0.80;0.60;;;;;;;6.01;63.33;96393.19;115914;1196;24253;-84
2021/11/05 02:16:48;;;;;;;0.80;0.40;;;;;;;6.08;63.44;96394.30;115849;1195;24127;-83
2021/11/05 02:19:22;;;;;;;1.10;0.60;;;;;;;6.08;63.28;96391.77;115875;1196;24720;-84
2021/11/05 02:21:55;;;;;;;1.60;0.60;;;;;;;6.01;63.41;96401.71;115849;1196;26964;-84
2021/11/05 02:24:28;;;;;;;0.60;0.60;;;;;;;5.94;63.36;96410.98;115902;1196;24872;-84
2021/11/05 02:26:59;;;;;;;0.60;0.50;;;;;;;5.89;63.38;96419.97;115856;1196;25153;-84
2021/11/05 02:29:32;;;;;;;2.10;0.50;;;;;;;5.85;63.35;96427.36;115837;1196;24391;-84
2021/11/05 02:32:05;;;;;;;0.70;0.60;;;;;;;5.84;63.75;96423.83;115984;1196;24091;-84
2021/11/05 02:34:36;;;;;;;1.20;0.50;;;;;;;5.80;63.62;96421.98;115921;1194;25300;-84
2021/11/05 02:37:07;;;;;;;0.60;0.50;;;;;;;5.72;63.86;96417.95;115851;1196;23603;-83
2021/11/05 02:39:38;;;;;;;0.90;0.60;;;;;;;5.65;64.05;96420.48;115875;1196;36707;-83
2021/11/05 02:42:08;;;;;;;;;;;;;;;5.62;64.24;96417.02;115850;1196;24009;-83
2021/11/05 02:44:39;;;;;;;1.20;0.50;;;;;;;5.59;64.35;96417.79;115863;1196;23603;-83
2021/11/05 02:47:24;;;;;;;1.70;0.90;;;;;;;5.57;64.46;96418.52;115835;1196;24619;-83
2021/11/05 02:50:09;;;;;;;1.10;0.60;;;;;;;5.54;64.46;96426.65;115840;1195;25387;-84
2021/11/05 02:52:40;;;;;;;1.60;0.70;;;;;;;5.54;64.72;96425.45;115874;1196;24890;-83
2021/11/05 02:55:14;;;;;;;0.60;0.50;;;;;;;5.56;64.59;96428.55;115855;1190;23642;-83
2021/11/05 02:57:45;;;;;;;1.70;0.80;;;;;;;5.56;64.57;96429.87;115897;1195;26320;-83
2021/11/05 03:00:17;;;;;;;0.40;0.40;;;;;;;5.52;64.46;96435.41;115895;1195;23551;-83
2021/11/05 03:02:48;;;;;;;0.50;0.50;;;;;;;5.51;64.57;96435.15;115919;1195;22899;-84
2021/11/05 03:05:19;;;;;;;0.50;0.50;;;;;;;5.48;64.76;96441.14;115843;1196;26081;-84
2021/11/05 03:07:49;;;;;;;0.70;0.50;;;;;;;5.47;65.05;96445.45;115908;1196;26096;-83
2021/11/05 03:10:21;;;;;;;0.70;0.70;;;;;;;5.44;65.01;96449.27;115825;1196;23479;-83
2021/11/05 03:12:51;;;;;;;1.30;0.60;;;;;;;5.41;65.21;96454.34;115846;1196;23550;-84
2021/11/05 03:15:20;;;;;;;;;;;;;;;5.38;65.09;96452.96;115930;1195;25400;-83
2021/11/05 03:17:53;;;;;;;0.70;0.50;;;;;;;5.30;65.32;96458.29;115951;1196;55643;-84
2021/11/05 03:20:24;;;;;;;0.50;0.50;;;;;;;5.21;65.49;96464.56;115895;1196;24635;-83
2021/11/05 03:22:55;;;;;;;0.70;0.50;;;;;;;5.17;65.89;96475.06;115919;1195;24045;-84
2021/11/05 03:25:26;;;;;;;1.00;0.50;;;;;;;5.16;65.96;96483.36;115857;1196;23805;-84
2021/11/05 03:27:57;;;;;;;0.90;0.70;;;;;;;5.11;66.14;96485.37;115894;1195;24530;-84
2021/11/05 03:30:26;;;;;;;;;;;;;;;5.08;66.03;96486.70;115899;1195;24814;-83
2021/11/05 03:32:57;;;;;;;0.80;0.50;;;;;;;5.11;66.28;96485.73;115890;1195;22736;-84
2021/11/05 03:35:26;;;;;;;;;;;;;;;5.08;66.32;96497.48;115890;1196;24156;-84
2021/11/05 03:37:57;;;;;;;1.10;0.40;;;;;;;5.05;66.76;96490.34;115927;1196;24351;-84
2021/11/05 03:40:27;;;;;;;0.60;0.50;;;;;;;5.16;66.74;96498.83;115849;1196;24101;-83
2021/11/05 03:42:58;;;;;;;0.70;0.70;;;;;;;5.20;66.71;96497.22;115884;1190;26758;-85
2021/11/05 03:45:29;;;;;;;0.70;0.70;;;;;;;5.21;66.60;96503.66;115894;1196;27682;-84
2021/11/05 03:48:00;;;;;;;1.50;0.60;;;;;;;5.25;66.68;96509.34;115834;1196;25211;-84
2021/11/05 03:50:31;;;;;;;1.20;0.70;;;;;;;5.23;66.73;96522.14;115832;1196;25337;-84
2021/11/05 03:53:02;;;;;;;1.40;0.80;;;;;;;5.24;66.79;96523.73;115957;1196;23257;-84
2021/11/05 03:55:33;;;;;;;1.10;0.90;;;;;;;5.24;66.90;96525.35;115914;1195;23956;-84
2021/11/05 03:58:04;;;;;;;0.70;0.70;;;;;;;5.19;67.18;96525.34;115960;1196;23842;-84
2021/11/05 04:00:35;;;;;;;0.50;0.50;;;;;;;5.13;67.19;96526.21;116001;1195;23797;-84
2021/11/05 04:03:06;;;;;;;0.60;0.60;;;;;;;5.14;67.62;96525.03;115904;1195;23862;-84
2021/11/05 04:05:37;;;;;;;0.80;0.70;;;;;;;5.21;67.79;96520.75;115933;1196;25190;-84
2021/11/05 04:08:08;;;;;;;1.90;0.90;;;;;;;5.24;67.52;96515.59;115916;1195;24805;-84
2021/11/05 04:10:39;;;;;;;0.70;0.70;;;;;;;5.21;67.37;96510.23;115789;1195;26990;-83
2021/11/05 04:13:10;;;;;;;0.50;0.50;;;;;;;5.17;67.56;96510.49;115730;1196;25005;-83
2021/11/05 04:15:39;;;;;;;;;;;;;;;5.16;67.64;96507.96;115746;1197;26058;-83
2021/11/05 04:18:10;;;;;;;2.10;0.50;;;;;;;5.12;67.64;96510.91;115783;1196;23293;-83
2021/11/05 04:20:41;;;;;;;0.70;0.70;;;;;;;5.08;67.70;96509.41;115703;1196;24374;-83
2021/11/05 04:23:16;;;;;;;0.80;0.70;;;;;;;5.04;67.85;96515.33;115740;1196;22416;-83
2021/11/05 04:25:47;;;;;;;1.50;0.90;;;;;;;5.05;67.75;96504.73;115727;1196;25634;-84
2021/11/05 04:28:19;;;;;;;0.90;0.90;;;;;;;5.06;67.79;96508.48;115792;1196;23594;-84
2021/11/05 04:30:50;;;;;;;0.50;0.50;;;;;;;5.05;67.94;96506.00;115736;1196;23240;-84
2021/11/05 04:33:19;;;;;;;;;;;;;;;5.10;67.87;96512.68;115635;1197;23673;-84
2021/11/05 04:35:50;;;;;;;0.60;0.50;;;;;;;5.12;68.06;96505.88;115758;1196;23725;-84
2021/11/05 04:38:20;;;;;;;1.10;1.00;;;;;;;5.09;67.99;96512.42;115713;1196;26192;-84
2021/11/05 04:40:51;;;;;;;1.20;0.90;;;;;;;5.07;68.00;96516.77;115777;1195;26366;-83
2021/11/05 04:43:20;;;;;;;;;;;;;;;5.06;67.90;96521.87;115740;1196;25545;-83
2021/11/05 04:45:51;;;;;;;0.70;0.70;;;;;;;5.03;68.20;96525.58;115805;1196;23468;-83
2021/11/05 04:48:22;;;;;;;1.70;1.10;;;;;;;5.04;68.06;96536.10;115797;1196;25030;-83
2021/11/05 04:50:53;;;;;;;2.00;1.40;;;;;;;5.00;68.28;96541.88;115771;1196;26669;-83
2021/11/05 04:53:23;;;;;;;1.10;1.00;;;;;;;5.00;68.61;96537.63;115758;1196;22760;-84
2021/11/05 04:55:54;;;;;;;0.50;0.50;;;;;;;5.04;68.44;96537.24;115746;1196;25083;-84
2021/11/05 04:58:25;;;;;;;0.80;0.80;;;;;;;5.04;68.45;96539.02;115827;1196;25031;-83
2021/11/05 05:00:56;;;;;;;2.00;1.20;;;;;;;4.97;68.69;96545.85;115864;1196;27443;-83
2021/11/05 05:03:26;;;;;;;0.70;0.70;;;;;;;4.96;68.89;96553.23;115858;1196;24804;-84
2021/11/05 05:05:57;;;;;;;1.00;0.90;;;;;;;5.01;68.98;96561.59;115778;1196;25686;-84
2021/11/05 05:08:28;;;;;;;0.70;0.60;;;;;;;5.02;68.88;96561.23;115713;1196;27603;-83
2021/11/05 05:10:59;;;;;;;2.60;0.60;;;;;;;4.99;68.96;96564.95;115765;1196;26015;-82
2021/11/05 05:13:29;;;;;;;1.70;0.80;;;;;;;5.00;68.99;96561.38;115778;1196;24988;-82
2021/11/05 05:16:00;;;;;;;0.90;0.50;;;;;;;4.97;69.06;96561.91;115772;1195;25321;-83
2021/11/05 05:18:31;;;;;;;0.90;0.60;;;;;;;4.89;69.10;96562.80;115807;1196;25775;-83
2021/11/05 05:21:01;;;;;;;2.20;1.20;;;;;;;4.83;69.29;96572.45;115833;1196;24367;-82
2021/11/05 05:23:34;;;;;;;1.20;1.10;;;;;;;4.79;69.42;96567.04;115811;1196;25841;-82
2021/11/05 05:26:04;;;;;;;1.10;0.70;;;;;;;4.74;69.40;96577.63;115859;1189;22473;-84
2021/11/05 05:28:35;;;;;;;0.90;0.80;;;;;;;4.67;69.73;96578.23;115857;1196;25478;-84
2021/11/05 05:31:09;;;;;;;1.30;1.10;;;;;;;4.63;69.72;96579.88;115817;1196;23478;-84
2021/11/05 05:33:42;;;;;;;1.70;0.90;;;;;;;4.60;69.86;96574.28;115718;1196;23926;-84
2021/11/05 05:36:13;;;;;;;1.60;0.90;;;;;;;4.61;69.90;96573.34;115931;1195;23946;-84
2021/11/05 05:38:43;;;;;;;0.90;0.80;;;;;;;4.61;69.84;96573.86;115874;1189;24532;-84
2021/11/05 05:41:12;;;;;;;;;;;;;;;4.61;69.70;96577.01;115901;1196;23671;-84
2021/11/05 05:43:43;;;;;;;1.20;1.10;;;;;;;4.59;69.63;96576.84;115811;1196;23907;-84
2021/11/05 05:46:14;;;;;;;1.70;1.20;;;;;;;4.57;69.44;96570.83;115849;1196;24028;-82
2021/11/05 05:48:45;;;;;;;1.00;0.90;;;;;;;4.54;69.28;96574.20;115840;1196;25247;-82
2021/11/05 05:51:14;;;;;;;;;;;;;;;4.53;69.44;96589.31;115872;1189;25136;-84
2021/11/05 05:53:44;;;;;;;1.80;1.20;;;;;;;4.51;69.11;96594.58;115882;1196;24142;-84
2021/11/05 05:56:13;;;;;;;;;;;;;;;4.46;69.38;96601.64;115875;1196;23430;-84
2021/11/05 05:58:44;;;;;;;1.30;0.90;;;;;;;4.46;69.41;96613.33;115795;1196;24066;-83
2021/11/05 06:01:15;;;;;;;1.50;1.00;;;;;;;4.38;69.39;96629.17;115798;1196;25188;-83
2021/11/05 06:03:46;;;;;;;1.00;0.90;;;;;;;4.33;69.59;96638.33;115821;1196;23049;-83
2021/11/05 06:06:17;;;;;;;2.90;1.60;;;;;;;4.42;69.92;96648.19;115777;1189;25029;-84
2021/11/05 06:08:48;;;;;;;1.30;1.20;;;;;;;4.59;70.01;96646.27;115784;1196;25677;-83
2021/11/05 06:11:19;;;;;;;1.70;1.20;;;;;;;4.86;69.92;96645.02;115869;1196;24091;-84
2021/11/05 06:13:48;;;;;;;;;;;;;;;5.40;69.29;96632.56;115794;1196;23565;-83
2021/11/05 06:16:19;;;;;;;1.80;1.30;;;;;;;5.95;68.49;96622.15;115836;1196;23394;-83
2021/11/05 06:18:50;;;;;;;1.20;1.00;;;;;;;6.46;67.79;96626.33;115828;1196;32175;-83
2021/11/05 06:21:24;;;;;;;2.10;1.60;;;;;;;6.80;66.61;96633.27;115849;1196;22779;-83
2021/11/05 06:23:55;;;;;;;3.20;2.20;;;;;;;6.92;65.78;96641.73;115811;1190;22514;-83
2021/11/05 06:26:26;;;;;;;1.50;1.30;;;;;;;7.08;65.42;96648.25;115776;1196;23958;-84
2021/11/05 06:29:02;;;;;;;3.40;2.00;;;;;;;7.04;64.31;96661.42;115749;1174;26348;-84
2021/11/05 06:31:34;;;;;;;1.60;1.40;;;;;;;6.87;64.61;96672.38;115877;1196;23132;-84
2021/11/05 06:34:05;;;;;;;2.60;1.60;;;;;;;7.23;64.39;96676.08;115882;1196;23391;-84
2021/11/05 06:36:36;;;;;;;1.90;1.50;;;;;;;7.38;63.72;96685.30;115910;1196;23041;-84
2021/11/05 06:39:07;;;;;;;1.60;1.30;;;;;;;7.43;63.29;96683.37;115937;1180;24022;-84
2021/11/05 06:41:38;;;;;;;2.70;1.60;;;;;;;7.46;63.05;96697.59;115866;1196;23264;-84
2021/11/05 06:44:09;;;;;;;2.00;1.30;;;;;;;7.41;62.61;96691.12;115847;1196;22480;-84
2021/11/05 06:46:40;;;;;;;2.10;1.40;;;;;;;7.30;62.65;96688.21;115775;1196;26116;-84
2021/11/05 06:49:11;;;;;;;2.00;1.40;;;;;;;7.70;62.72;96692.89;115776;1191;26714;-84
2021/11/05 06:51:42;;;;;;;1.50;1.40;;;;;;;8.19;61.97;96685.84;115795;1189;23907;-83
2021/11/05 06:54:12;;;;;;;2.40;1.20;;;;;;;8.56;61.10;96681.70;115730;1196;23943;-83
2021/11/05 06:56:43;;;;;;;1.20;1.10;;;;;;;8.88;60.10;96665.20;115757;1196;24395;-83
2021/11/05 06:59:14;;;;;;;1.70;1.40;;;;;;;9.01;59.48;96662.17;115773;1195;24198;-83
2021/11/05 07:01:46;;;;;;;1.50;1.00;;;;;;;9.20;59.14;96665.27;115850;1196;22872;-83
2021/11/05 07:04:16;;;;;;;1.60;1.20;;;;;;;9.57;58.53;96667.04;115731;1196;25987;-84
2021/11/05 07:06:46;;;;;;;;;;;;;;;9.92;57.94;96671.23;115871;1195;23157;-83
2021/11/05 07:09:18;;;;;;;2.30;1.40;;;;;;;10.20;57.08;96682.39;115758;1196;22744;-83
2021/11/05 07:11:49;;;;;;;1.50;1.30;;;;;;;10.23;55.72;96686.05;115767;1196;24444;-84
2021/11/05 07:14:20;;;;;;;1.00;0.90;;;;;;;9.89;55.65;96689.80;115756;1196;25350;-83
2021/11/05 07:16:50;;;;;;;2.20;1.50;;;;;;;9.65;55.66;96686.65;115776;1196;23531;-82
2021/11/05 07:19:24;;;;;;;;;;;;;;;9.67;55.77;96687.12;115848;1196;23074;-83
2021/11/05 07:22:02;;;;;;;1.10;1.00;;;;;;;9.47;55.91;96692.36;115807;1196;24225;-84
2021/11/05 07:24:35;;;;;;;1.80;1.50;;;;;;;8.75;55.86;96709.67;115827;1196;23352;-83
2021/11/05 07:27:07;;;;;;;4.10;1.50;;;;;;;8.11;57.13;96708.73;115740;1196;24875;-83
2021/11/05 07:29:38;;;;;;;2.80;1.50;;;;;;;7.71;58.43;96711.95;115763;1196;24706;-83
2021/11/05 07:32:10;;;;;;;2.50;1.50;;;;;;;7.57;58.83;96711.67;115828;1196;24073;-83
2021/11/05 07:34:41;;;;;;;2.10;1.60;;;;;;;7.33;59.19;96712.54;115765;1196;22832;-84
2021/11/05 07:37:16;;;;;;;2.40;1.30;;;;;;;7.19;59.82;96722.42;115790;1196;24972;-84
2021/11/05 07:39:47;;;;;;;3.40;2.10;;;;;;;7.26;60.11;96723.52;115761;1196;23832;-84
2021/11/05 07:42:19;;;;;;;3.00;1.70;;;;;;;7.40;60.35;96721.23;115867;1196;23391;-84
2021/11/05 07:44:50;;;;;;;3.70;2.10;;;;;;;7.79;60.14;96732.15;115797;1196;23215;-83
2021/11/05 07:47:23;;;;;;;1.30;1.20;;;;;;;7.74;59.72;96746.02;115743;1196;25812;-84
2021/11/05 07:49:54;;;;;;;2.90;1.70;;;;;;;7.35;59.81;96746.63;115750;1196;25288;-84
2021/11/05 07:52:23;;;;;;;;;;;;;;;7.10;60.52;96757.63;115770;1190;24558;-84
2021/11/05 07:54:54;;;;;;;3.20;2.20;;;;;;;7.01;60.79;96750.65;115772;1196;22552;-84
2021/11/05 07:57:24;;;;;;;2.50;1.80;;;;;;;7.20;61.53;96759.37;115819;1196;23658;-83
2021/11/05 07:59:58;;;;;;;2.90;1.80;;;;;;;8.17;61.00;96767.59;115814;1196;23700;-83
2021/11/05 08:02:29;;;;;;;3.70;1.80;;;;;;;8.55;59.56;96768.31;115850;1196;25914;-84
2021/11/05 08:05:00;;;;;;;2.80;2.00;;;;;;;8.85;59.59;96775.70;115774;1189;24101;-84
2021/11/05 08:07:32;;;;;;;3.40;1.80;;;;;;;9.39;58.46;96770.95;115807;1196;23093;-84
2021/11/05 08:10:03;;;;;;;1.90;1.60;;;;;;;9.12;56.84;96771.85;115799;1196;23722;-84
2021/11/05 08:12:35;;;;;;;2.90;2.00;;;;;;;8.71;57.71;96766.39;115848;1196;24625;-84
2021/11/05 08:15:07;;;;;;;4.80;1.90;;;;;;;9.02;58.37;96771.92;115860;1196;23694;-84
2021/11/05 08:17:38;;;;;;;3.10;1.80;;;;;;;9.31;57.65;96770.18;115797;1196;35129;-83
2021/11/05 08:20:10;;;;;;;2.10;1.30;;;;;;;9.18;56.98;96779.38;115771;1196;26180;-83
2021/11/05 08:22:43;;;;;;;1.50;1.30;;;;;;;8.96;57.28;96781.69;115726;1193;24369;-83
2021/11/05 08:25:15;;;;;;;2.00;1.40;;;;;;;8.83;57.17;96776.61;115686;1196;23605;-83
2021/11/05 08:27:48;;;;;;;2.90;1.30;;;;;;;8.69;56.97;96768.98;115932;1196;26660;-82
2021/11/05 08:30:22;;;;;;;3.10;1.20;;;;;;;8.60;56.81;96767.48;115849;1196;25009;-84
2021/11/05 08:32:56;;;;;;;0.70;0.70;;;;;;;8.56;56.98;96772.00;115883;1196;23508;-83
2021/11/05 08:35:30;;;;;;;1.70;0.90;;;;;;;8.55;56.68;96767.30;115616;1196;25409;-82
2021/11/05 08:38:03;;;;;;;1.80;1.30;;;;;;;8.57;56.71;96776.23;115846;1196;25330;-83
2021/11/05 08:40:35;;;;;;;1.50;1.30;;;;;;;8.80;57.07;96773.91;115932;1195;24153;-83
2021/11/05 08:43:05;;;;;;;6.30;1.70;;;;;;;9.08;56.62;96781.70;115990;1196;23892;-83
2021/11/05 08:45:36;;;;;;;1.70;1.10;;;;;;;9.17;56.30;96776.43;115933;1195;25409;-83
2021/11/05 08:48:08;;;;;;;1.70;1.20;;;;;;;9.26;56.17;96777.32;115936;1196;27496;-83
2021/11/05 08:50:39;;;;;;;2.40;1.40;;;;;;;9.08;55.68;96779.81;115631;1196;38678;-83
2021/11/05 08:53:10;;;;;;;1.60;0.90;;;;;;;9.13;56.06;96777.01;115859;1196;25942;-83
2021/11/05 08:55:41;;;;;;;1.90;1.30;;;;;;;9.16;55.75;96779.55;115780;1196;23486;-82
2021/11/05 08:58:12;;;;;;;2.10;1.40;;;;;;;8.95;55.64;96781.91;115766;1196;24112;-82
2021/11/05 09:00:43;;;;;;;2.40;1.10;;;;;;;8.71;56.05;96788.74;115826;1196;28260;-83
2021/11/05 09:03:15;;;;;;;1.10;1.00;;;;;;;8.82;56.65;96795.91;115801;1196;34550;-82
2021/11/05 09:05:46;;;;;;;1.00;0.90;;;;;;;8.87;56.04;96797.23;115830;1196;25634;-83
2021/11/05 09:08:17;;;;;;;2.40;1.10;;;;;;;8.81;56.00;96815.09;115789;1196;24980;-83
2021/11/05 09:10:48;;;;;;;2.80;1.40;;;;;;;8.93;55.85;96814.27;115855;1196;24398;-83
2021/11/05 09:13:19;;;;;;;3.70;1.20;;;;;;;9.04;56.05;96814.66;115705;1190;23077;-83
2021/11/05 09:15:50;;;;;;;2.80;1.50;;;;;;;8.99;55.27;96807.45;115735;1196;24924;-83
2021/11/05 09:18:22;;;;;;;1.60;0.90;;;;;;;8.89;55.97;96817.19;115699;1195;23896;-83
2021/11/05 09:20:54;;;;;;;1.60;1.40;;;;;;;8.92;55.61;96813.91;115764;1196;23997;-83
2021/11/05 09:23:24;;;;;;;1.40;1.10;;;;;;;9.04;55.75;96809.47;115733;1196;25753;-83
2021/11/05 09:25:55;;;;;;;2.90;1.70;;;;;;;9.21;55.60;96800.60;115724;1195;23345;-83
2021/11/05 09:28:26;;;;;;;1.10;1.00;;;;;;;9.35;54.90;96798.74;115713;1191;24066;-83
2021/11/05 09:30:58;;;;;;;1.90;0.90;;;;;;;9.48;54.86;96809.70;115726;1196;23553;-83
2021/11/05 09:33:29;;;;;;;2.10;1.30;;;;;;;9.67;54.57;96807.63;115687;1190;22893;-83
2021/11/05 09:35:59;;;;;;;2.70;1.40;;;;;;;9.91;54.38;96801.95;115689;1196;24632;-82
2021/11/05 09:38:30;;;;;;;1.20;1.10;;;;;;;10.05;54.13;96807.21;115741;1196;25104;-83
2021/11/05 09:40:59;;;;;;;;;;;;;;;10.03;52.65;96808.50;115797;1196;24645;-82
2021/11/05 09:43:31;;;;;;;2.70;1.20;;;;;;;9.94;52.58;96811.73;115719;1196;23770;-82
2021/11/05 09:46:02;;;;;;;3.50;2.00;;;;;;;9.88;52.73;96808.38;115671;1189;25112;-82
2021/11/05 09:48:37;;;;;;;3.80;1.40;;;;;;;9.86;53.04;96809.53;115742;1196;30907;-83
2021/11/05 09:51:11;;;;;;;2.50;1.10;;;;;;;9.81;53.03;96813.67;115723;1196;24494;-83
2021/11/05 09:53:41;;;;;;;1.80;1.30;;;;;;;9.75;52.74;96810.95;115757;1196;26664;-83
2021/11/05 09:56:14;;;;;;;1.20;1.00;;;;;;;9.62;52.82;96815.98;115689;1196;26594;-83
2021/11/05 09:58:45;;;;;;;7.30;3.80;;;;;;;9.49;52.70;96815.30;115739;1196;25266;-82
2021/11/05 10:01:15;;;;;;;1.80;0.80;;;;;;;9.44;53.25;96818.80;115715;1196;28891;-83
2021/11/05 10:03:46;;;;;;;1.70;1.00;;;;;;;9.41;53.21;96819.54;115759;1196;25809;-83
2021/11/05 10:06:19;;;;;;;2.20;1.50;;;;;;;9.40;52.97;96825.20;115719;1196;23621;-84
2021/11/05 10:08:55;;;;;;;4.10;1.00;;;;;;;9.35;53.40;96835.84;115755;1196;24487;-84
2021/11/05 10:11:30;;;;;;;1.40;1.00;;;;;;;9.48;53.86;96834.36;115868;1190;26056;-84
2021/11/05 10:14:03;;;;;;;2.40;1.30;;;;;;;9.64;53.69;96836.46;115862;1196;25104;-85
2021/11/05 10:16:36;;;;;;;1.90;1.40;;;;;;;9.67;53.99;96842.13;115905;1190;24697;-84
2021/11/05 10:19:08;;;;;;;1.70;1.20;;;;;;;9.80;53.86;96836.13;115868;1196;24064;-84
2021/11/05 10:21:44;;;;;;;2.30;1.40;;;;;;;10.07;53.97;96836.83;115692;1197;22592;-83
2021/11/05 10:24:18;;;;;;;3.50;1.40;;;;;;;10.48;53.54;96834.98;115704;1196;23549;-84
2021/11/05 10:26:50;;;;;;;2.80;1.40;;;;;;;10.86;53.26;96832.61;115669;1196;23004;-84
2021/11/05 10:29:32;;;;;;;2.80;1.50;;;;;;;11.08;52.92;96826.33;115840;1196;23258;-83
2021/11/05 10:32:06;;;;;;;3.60;1.40;;;;;;;11.24;52.04;96823.23;115897;1191;22449;-84
2021/11/05 10:34:51;;;;;;;1.90;1.10;;;;;;;11.11;51.62;96824.39;115742;1198;24678;-84
2021/11/05 10:37:32;;;;;;;1.30;1.10;;;;;;;10.99;52.10;96828.77;115825;1196;23171;-84
2021/11/05 10:40:07;;;;;;;2.60;1.20;;;;;;;10.92;51.44;96833.27;115809;1196;25977;-82
2021/11/05 10:42:40;;;;;;;2.90;1.30;;;;;;;10.74;51.23;96836.02;115663;1197;24840;-81
2021/11/05 10:45:17;;;;;;;2.30;1.30;;;;;;;10.67;51.76;96834.30;115673;1196;23581;-83
2021/11/05 10:48:09;;;;;;;1.70;1.10;;;;;;;10.64;50.99;96835.06;115631;1198;24217;-83
2021/11/05 10:50:53;;;;;;;11.90;5.00;;;;;;;10.48;51.18;96841.28;115738;1196;22735;-82
2021/11/05 10:53:25;;;;;;;3.00;1.70;;;;;;;10.37;51.55;96841.15;115674;1190;25017;-83
2021/11/05 10:56:00;;;;;;;4.20;2.00;;;;;;;10.34;51.75;96846.58;115684;1196;23490;-84
2021/11/05 10:58:33;;;;;;;6.20;1.90;;;;;;;10.35;51.67;96845.56;115703;1190;25392;-83
2021/11/05 11:01:06;;;;;;;11.90;5.70;;;;;;;10.31;51.37;96843.89;115781;1197;26285;-83
2021/11/05 11:03:41;;;;;;;3.90;2.10;;;;;;;10.24;51.45;96842.20;115728;1191;26658;-83
2021/11/05 11:06:15;;;;;;;2.60;2.10;;;;;;;10.27;52.07;96837.16;115677;1197;25695;-84
2021/11/05 11:08:47;;;;;;;3.20;2.10;;;;;;;10.35;52.32;96843.50;115695;1197;25647;-83
2021/11/05 11:11:25;;;;;;;3.70;1.80;;;;;;;10.44;52.31;96851.75;115746;1196;24367;-83
2021/11/05 11:13:57;;;;;;;3.00;1.40;;;;;;;10.43;52.34;96853.17;115679;1191;28126;-84
2021/11/05 11:16:33;;;;;;;2.20;1.70;;;;;;;10.41;52.02;96847.45;115707;1190;24145;-84
2021/11/05 11:19:06;;;;;;;7.60;1.60;;;;;;;10.40;52.22;96852.06;115742;1197;23533;-83
2021/11/05 11:21:39;;;;;;;2.00;1.60;;;;;;;10.45;51.80;96852.32;115770;1196;24610;-83
2021/11/05 11:24:13;;;;;;;3.50;1.60;;;;;;;10.32;51.31;96850.73;115670;1196;24263;-83
2021/11/05 11:26:46;;;;;;;2.40;1.60;;;;;;;10.25;51.47;96860.53;115720;1196;23545;-83
2021/11/05 11:29:21;;;;;;;3.20;1.50;;;;;;;10.30;51.31;96859.95;115789;1196;35099;-83
2021/11/05 11:31:54;;;;;;;3.20;1.10;;;;;;;10.29;50.98;96859.80;115772;1196;24176;-84
2021/11/05 11:34:25;;;;;;;1.60;1.20;;;;;;;10.21;50.85;96852.79;115705;1196;23068;-83
2021/11/05 11:36:59;;;;;;;1.80;1.10;;;;;;;10.16;51.19;96854.19;115764;1196;25036;-83
2021/11/05 11:39:32;;;;;;;2.70;1.20;;;;;;;10.15;51.13;96860.98;115745;1196;23978;-83
2021/11/05 11:42:05;;;;;;;4.20;1.60;;;;;;;10.11;50.85;96865.58;115701;1196;24041;-84
2021/11/05 11:44:38;;;;;;;4.80;1.60;;;;;;;10.04;51.20;96876.41;115729;1196;25634;-84
2021/11/05 11:47:12;;;;;;;2.10;1.30;;;;;;;10.00;51.37;96887.27;115719;1196;24323;-82
2021/11/05 11:49:49;;;;;;;3.50;1.20;;;;;;;10.00;51.49;96888.02;115849;1196;25427;-83
2021/11/05 11:52:34;;;;;;;2.30;1.20;;;;;;;10.16;51.47;96879.03;115702;1189;22826;-83
2021/11/05 11:55:19;;;;;;;2.50;1.30;;;;;;;10.58;51.19;96882.96;115770;1196;23078;-84
2021/11/05 11:57:50;;;;;;;1.90;1.10;;;;;;;10.96;50.41;96888.58;115674;1196;24486;-82
2021/11/05 12:00:24;;;;;;;2.40;1.30;;;;;;;11.03;49.66;96887.80;115779;1196;24938;-83